createdAt,value
2018-07-01T00:00:50.432Z,55.24
2018-07-01T00:01:50.448Z,58.42
2018-07-01T00:02:50.441Z,59.34
2018-07-01T00:03:50.657Z,57.62
2018-07-01T00:04:50.447Z,59.83
2018-07-01T00:05:50.467Z,60.78
2018-07-01T00:06:50.481Z,60.60
2018-07-01T00:07:50.477Z,60.40
2018-07-01T00:08:50.667Z,60.98
2018-07-01T00:09:50.485Z,61.27
2018-07-01T00:10:50.558Z,59.34
2018-07-01T00:11:50.503Z,58.87
2018-07-01T00:12:50.686Z,58.58
2018-07-01T00:13:50.505Z,58.77
2018-07-01T00:14:50.495Z,58.96
2018-07-01T00:15:50.503Z,59.83
2018-07-01T00:16:50.516Z,60.69
2018-07-01T00:17:50.524Z,60.50
2018-07-01T00:18:50.529Z,59.83
2018-07-01T00:19:50.540Z,60.78
2018-07-01T00:20:50.523Z,60.78
2018-07-01T00:21:50.534Z,59.16
2018-07-01T00:22:50.530Z,60.69
2018-07-01T00:23:50.547Z,57.04
2018-07-01T00:24:50.539Z,57.81
2018-07-01T00:25:50.542Z,60.53
2018-07-01T00:26:50.555Z,59.95
2018-07-01T00:27:50.552Z,57.84
2018-07-01T00:28:50.558Z,58.22
2018-07-01T00:29:50.560Z,55.53
2018-07-01T00:30:50.564Z,58.13
2018-07-01T00:31:50.568Z,58.32
2018-07-01T00:32:50.593Z,56.40
2018-07-01T00:33:50.594Z,59.09
2018-07-01T00:34:50.596Z,61.01
2018-07-01T00:35:50.587Z,56.30
2018-07-01T00:36:50.598Z,58.03
2018-07-01T00:37:50.607Z,55.73
2018-07-01T00:38:50.625Z,55.91
2018-07-01T00:39:50.614Z,53.64
2018-07-01T00:40:50.616Z,52.00
2018-07-01T00:41:50.613Z,53.16
2018-07-01T00:42:50.617Z,52.87
2018-07-01T00:43:50.630Z,51.23
2018-07-01T00:44:50.625Z,53.45
2018-07-01T00:45:50.628Z,52.48
2018-07-01T00:46:50.642Z,52.00
2018-07-01T00:47:50.648Z,52.77
2018-07-01T00:48:50.655Z,52.68
2018-07-01T00:49:50.647Z,51.33
2018-07-01T00:50:50.653Z,53.64
2018-07-01T00:51:50.657Z,52.97
2018-07-01T00:52:50.664Z,52.58
2018-07-01T00:53:50.665Z,56.62
2018-07-01T00:54:50.685Z,56.14
2018-07-01T00:55:50.679Z,53.06
2018-07-01T00:56:50.691Z,55.66
2018-07-01T00:57:50.697Z,56.62
2018-07-01T00:58:50.709Z,58.25
2018-07-01T00:59:50.705Z,56.91
2018-07-01T01:00:50.711Z,53.25
2018-07-01T01:01:50.714Z,53.74
2018-07-01T01:02:50.717Z,56.04
2018-07-01T01:03:50.722Z,57.87
2018-07-01T01:04:50.725Z,59.12
2018-07-01T01:05:50.734Z,60.17
2018-07-01T01:06:50.734Z,55.08
2018-07-01T01:07:50.730Z,53.16
2018-07-01T01:08:50.736Z,52.00
2018-07-01T01:09:50.740Z,54.79
2018-07-01T01:10:50.753Z,55.76
2018-07-01T01:11:50.759Z,53.83
2018-07-01T01:12:50.781Z,52.20
2018-07-01T01:13:50.773Z,51.81
2018-07-01T01:14:50.782Z,51.72
2018-07-01T01:15:50.767Z,53.45
2018-07-01T01:16:50.768Z,51.72
2018-07-01T01:17:50.789Z,52.48
2018-07-01T01:18:50.812Z,53.83
2018-07-01T01:19:50.988Z,52.87
2018-07-01T01:20:50.789Z,52.77
2018-07-01T01:21:50.794Z,54.41
2018-07-01T01:22:50.813Z,53.25
2018-07-01T01:23:50.808Z,52.87
2018-07-01T01:24:50.836Z,53.45
2018-07-01T01:25:50.811Z,52.97
2018-07-01T01:26:51.022Z,53.25
2018-07-01T01:27:50.835Z,56.91
2018-07-01T01:28:50.846Z,57.87
2018-07-01T01:29:50.845Z,56.91
2018-07-01T01:30:50.836Z,57.68
2018-07-01T01:31:50.844Z,58.15
2018-07-01T01:32:51.048Z,55.66
2018-07-01T01:33:50.850Z,54.02
2018-07-01T01:34:50.858Z,54.22
2018-07-01T01:35:50.860Z,56.01
2018-07-01T01:36:50.872Z,52.65
2018-07-01T01:37:50.884Z,52.65
2018-07-01T01:38:51.080Z,54.19
2018-07-01T01:39:50.891Z,54.38
2018-07-01T01:40:50.894Z,54.67
2018-07-01T01:41:50.888Z,55.85
2018-07-01T01:42:50.894Z,55.18
2018-07-01T01:43:50.897Z,54.41
2018-07-01T01:44:50.901Z,55.37
2018-07-01T01:45:50.905Z,57.68
2018-07-01T01:46:50.911Z,54.86
2018-07-01T01:47:50.929Z,54.12
2018-07-01T01:48:50.919Z,52.87
2018-07-01T01:49:50.923Z,53.16
2018-07-01T01:50:50.952Z,55.76
2018-07-01T01:51:50.934Z,59.12
2018-07-01T01:52:50.942Z,58.64
2018-07-01T01:53:50.943Z,58.15
2018-07-01T01:54:50.958Z,58.03
2018-07-01T01:55:50.956Z,58.80
2018-07-01T01:56:50.972Z,60.34
2018-07-01T01:57:50.975Z,59.86
2018-07-01T01:58:50.966Z,60.72
2018-07-01T01:59:50.974Z,57.93
2018-07-01T02:00:51.187Z,58.51
2018-07-01T02:01:50.980Z,58.51
2018-07-01T02:02:50.983Z,58.99
2018-07-01T02:03:51.002Z,59.28
2018-07-01T02:04:50.995Z,60.53
2018-07-01T02:05:51.010Z,60.14
2018-07-01T02:06:51.007Z,60.63
2018-07-01T02:07:51.009Z,60.82
2018-07-01T02:08:51.215Z,57.52
2018-07-01T02:09:51.017Z,58.48
2018-07-01T02:10:51.048Z,61.08
2018-07-01T02:11:51.028Z,60.50
2018-07-01T02:12:51.048Z,61.55
2018-07-01T02:13:51.040Z,59.83
2018-07-01T02:14:51.039Z,58.00
2018-07-01T02:15:51.045Z,63.38
2018-07-01T02:16:51.047Z,60.98
2018-07-01T02:17:51.050Z,59.92
2018-07-01T02:18:51.055Z,59.25
2018-07-01T02:19:51.062Z,58.10
2018-07-01T02:20:51.079Z,63.09
2018-07-01T02:21:51.069Z,61.36
2018-07-01T02:22:51.075Z,60.85
2018-07-01T02:23:51.083Z,61.55
2018-07-01T02:24:51.082Z,64.92
2018-07-01T02:25:51.083Z,63.25
2018-07-01T02:26:51.089Z,62.10
2018-07-01T02:27:51.107Z,60.66
2018-07-01T02:28:51.111Z,60.57
2018-07-01T02:29:51.102Z,60.95
2018-07-01T02:30:51.107Z,61.78
2018-07-01T02:31:51.120Z,61.78
2018-07-01T02:32:51.330Z,62.93
2018-07-01T02:33:51.128Z,63.79
2018-07-01T02:34:51.124Z,64.92
2018-07-01T02:35:51.138Z,64.34
2018-07-01T02:36:51.143Z,64.25
2018-07-01T02:37:51.149Z,65.11
2018-07-01T02:38:51.353Z,64.53
2018-07-01T02:39:51.144Z,65.11
2018-07-01T02:40:51.148Z,64.82
2018-07-01T02:41:51.161Z,66.06
2018-07-01T02:42:51.171Z,67.02
2018-07-01T02:43:51.158Z,67.32
2018-07-01T02:44:51.161Z,67.69
2018-07-01T02:45:51.185Z,68.18
2018-07-01T02:46:51.168Z,68.66
2018-07-01T02:47:51.174Z,69.13
2018-07-01T02:48:51.177Z,68.66
2018-07-01T02:49:51.198Z,68.75
2018-07-01T02:50:51.183Z,68.56
2018-07-01T02:51:51.389Z,68.66
2018-07-01T02:52:51.190Z,67.89
2018-07-01T02:53:51.276Z,67.69
2018-07-01T02:54:51.401Z,67.89
2018-07-01T02:55:51.201Z,68.85
2018-07-01T02:56:51.205Z,68.66
2018-07-01T02:57:51.221Z,67.66
2018-07-01T02:58:51.215Z,68.24
2018-07-01T02:59:51.219Z,69.77
2018-07-01T03:00:51.221Z,69.58
2018-07-01T03:01:51.232Z,70.03
2018-07-01T03:02:51.226Z,71.27
2018-07-01T03:03:51.233Z,71.27
2018-07-01T03:04:51.244Z,72.13
2018-07-01T03:05:51.236Z,72.32
2018-07-01T03:06:51.250Z,72.32
2018-07-01T03:07:51.243Z,72.42
2018-07-01T03:08:51.246Z,72.03
2018-07-01T03:09:51.266Z,68.11
2018-07-01T03:10:51.254Z,68.40
2018-07-01T03:11:51.258Z,68.49
2018-07-01T03:12:51.261Z,69.01
2018-07-01T03:13:51.264Z,69.77
2018-07-01T03:14:51.298Z,69.20
2018-07-01T03:15:51.269Z,70.54
2018-07-01T03:16:51.291Z,69.96
2018-07-01T03:17:51.295Z,70.73
2018-07-01T03:18:51.294Z,70.67
2018-07-01T03:19:51.287Z,68.85
2018-07-01T03:20:51.287Z,69.04
2018-07-01T03:21:51.294Z,68.81
2018-07-01T03:22:51.308Z,69.62
2018-07-01T03:23:51.299Z,70.44
2018-07-01T03:24:51.325Z,70.29
2018-07-01T03:25:51.302Z,70.19
2018-07-01T03:26:51.512Z,69.58
2018-07-01T03:27:51.322Z,69.04
2018-07-01T03:28:51.317Z,70.76
2018-07-01T03:29:51.334Z,68.52
2018-07-01T03:30:51.543Z,68.95
2018-07-01T03:31:51.333Z,69.01
2018-07-01T03:32:51.336Z,68.62
2018-07-01T03:33:51.532Z,70.25
2018-07-01T03:34:51.540Z,70.15
2018-07-01T03:35:51.348Z,70.25
2018-07-01T03:36:51.341Z,71.02
2018-07-01T03:37:51.357Z,71.69
2018-07-01T03:38:51.372Z,71.21
2018-07-01T03:39:51.356Z,71.78
2018-07-01T03:40:51.375Z,70.73
2018-07-01T03:41:51.366Z,71.88
2018-07-01T03:42:51.357Z,70.98
2018-07-01T03:43:51.362Z,71.31
2018-07-01T03:44:51.365Z,71.98
2018-07-01T03:45:51.368Z,70.21
2018-07-01T03:46:51.388Z,70.70
2018-07-01T03:47:51.383Z,71.66
2018-07-01T03:48:51.378Z,71.75
2018-07-01T03:49:51.604Z,72.61
2018-07-01T03:50:51.391Z,71.84
2018-07-01T03:51:51.593Z,71.84
2018-07-01T03:52:51.391Z,73.76
2018-07-01T03:53:51.404Z,75.20
2018-07-01T03:54:51.410Z,73.57
2018-07-01T03:55:51.418Z,74.33
2018-07-01T03:56:51.417Z,74.33
2018-07-01T03:57:51.419Z,73.95
2018-07-01T03:58:51.436Z,72.32
2018-07-01T03:59:51.411Z,72.71
2018-07-01T04:00:51.645Z,73.05
2018-07-01T04:01:51.442Z,74.40
2018-07-01T04:02:51.432Z,74.77
2018-07-01T04:03:51.446Z,76.37
2018-07-01T04:04:51.438Z,76.65
2018-07-01T04:05:51.441Z,77.61
2018-07-01T04:06:51.444Z,78.72
2018-07-01T04:07:51.449Z,78.38
2018-07-01T04:08:51.437Z,79.81
2018-07-01T04:09:51.441Z,79.72
2018-07-01T04:10:51.456Z,80.29
2018-07-01T04:11:51.455Z,82.30
2018-07-01T04:12:51.472Z,82.30
2018-07-01T04:13:51.474Z,80.38
2018-07-01T04:14:51.452Z,78.95
2018-07-01T04:15:51.470Z,78.95
2018-07-01T04:16:51.466Z,78.66
2018-07-01T04:17:51.468Z,79.81
2018-07-01T04:18:51.467Z,80.96
2018-07-01T04:19:51.471Z,80.67
2018-07-01T04:20:51.486Z,80.38
2018-07-01T04:21:51.497Z,81.54
2018-07-01T04:22:51.494Z,81.63
2018-07-01T04:23:51.489Z,79.62
2018-07-01T04:24:51.490Z,80.48
2018-07-01T04:25:51.483Z,78.76
2018-07-01T04:26:51.510Z,78.76
2018-07-01T04:27:51.490Z,78.28
2018-07-01T04:28:51.491Z,78.32
2018-07-01T04:29:51.504Z,78.22
2018-07-01T04:30:51.506Z,78.28
2018-07-01T04:31:51.501Z,77.55
2018-07-01T04:32:51.503Z,75.93
2018-07-01T04:33:51.505Z,76.79
2018-07-01T04:34:51.524Z,78.89
2018-07-01T04:35:51.525Z,79.18
2018-07-01T04:36:51.512Z,77.75
2018-07-01T04:37:51.527Z,79.03
2018-07-01T04:38:51.517Z,78.80
2018-07-01T04:39:51.519Z,79.13
2018-07-01T04:40:51.524Z,77.88
2018-07-01T04:41:51.524Z,74.33
2018-07-01T04:42:51.528Z,72.71
2018-07-01T04:43:51.530Z,74.05
2018-07-01T04:44:51.550Z,75.01
2018-07-01T04:45:51.550Z,73.80
2018-07-01T04:46:51.571Z,71.50
2018-07-01T04:47:51.579Z,70.73
2018-07-01T04:48:51.543Z,69.01
2018-07-01T04:49:51.579Z,70.25
2018-07-01T04:50:51.552Z,70.48
2018-07-01T04:51:51.580Z,69.81
2018-07-01T04:52:51.571Z,70.19
2018-07-01T04:53:51.585Z,67.99
2018-07-01T04:54:51.588Z,65.78
2018-07-01T04:55:51.566Z,65.91
2018-07-01T04:56:51.580Z,65.81
2018-07-01T04:57:51.584Z,66.10
2018-07-01T04:58:51.576Z,65.14
2018-07-01T04:59:51.587Z,64.95
2018-07-01T05:00:51.579Z,65.14
2018-07-01T05:01:51.655Z,66.13
2018-07-01T05:02:51.608Z,66.80
2018-07-01T05:03:51.605Z,66.42
2018-07-01T05:04:51.593Z,64.12
2018-07-01T05:05:51.612Z,62.96
2018-07-01T05:06:51.612Z,61.24
2018-07-01T05:07:51.605Z,62.48
2018-07-01T05:08:51.616Z,62.32
2018-07-01T05:09:51.635Z,61.27
2018-07-01T05:10:51.614Z,61.75
2018-07-01T05:11:51.617Z,62.32
2018-07-01T05:12:51.635Z,62.32
2018-07-01T05:13:51.637Z,64.63
2018-07-01T05:14:51.649Z,66.55
2018-07-01T05:15:51.634Z,63.96
2018-07-01T05:16:51.634Z,60.50
2018-07-01T05:17:51.638Z,61.01
2018-07-01T05:18:51.659Z,61.20
2018-07-01T05:19:51.646Z,62.55
2018-07-01T05:20:51.650Z,61.97
2018-07-01T05:21:51.653Z,61.11
2018-07-01T05:22:51.657Z,62.07
2018-07-01T05:23:51.661Z,63.60
2018-07-01T05:24:51.664Z,64.56
2018-07-01T05:25:51.668Z,63.99
2018-07-01T05:26:51.674Z,62.35
2018-07-01T05:27:51.677Z,64.37
2018-07-01T05:28:51.692Z,63.70
2018-07-01T05:29:51.693Z,61.14
2018-07-01T05:30:51.701Z,60.08
2018-07-01T05:31:51.701Z,61.14
2018-07-01T05:32:51.694Z,60.75
2018-07-01T05:33:51.699Z,60.85
2018-07-01T05:34:51.713Z,61.81
2018-07-01T05:35:51.707Z,63.45
2018-07-01T05:36:51.708Z,64.22
2018-07-01T05:37:51.712Z,59.99
2018-07-01T05:38:51.731Z,59.15
2018-07-01T05:39:51.719Z,59.89
2018-07-01T05:40:51.737Z,56.84
2018-07-01T05:41:51.728Z,57.60
2018-07-01T05:42:51.761Z,57.51
2018-07-01T05:43:51.752Z,57.90
2018-07-01T05:44:51.759Z,57.90
2018-07-01T05:45:51.769Z,58.98
2018-07-01T05:46:51.767Z,58.60
2018-07-01T05:47:51.765Z,56.20
2018-07-01T05:48:51.756Z,57.06
2018-07-01T05:49:51.764Z,57.06
2018-07-01T05:50:51.761Z,56.38
2018-07-01T05:51:51.798Z,55.81
2018-07-01T05:52:51.786Z,55.23
2018-07-01T05:53:51.787Z,54.20
2018-07-01T05:54:51.792Z,55.74
2018-07-01T05:55:51.802Z,54.00
2018-07-01T05:56:51.794Z,54.10
2018-07-01T05:57:51.795Z,53.62
2018-07-01T05:58:51.798Z,54.39
2018-07-01T05:59:52.005Z,55.07
2018-07-01T06:00:51.828Z,55.45
2018-07-01T06:01:51.812Z,55.45
2018-07-01T06:02:51.815Z,55.93
2018-07-01T06:03:51.828Z,53.33
2018-07-01T06:04:51.834Z,54.68
2018-07-01T06:05:51.827Z,54.78
2018-07-01T06:06:51.830Z,55.07
2018-07-01T06:07:51.837Z,54.42
2018-07-01T06:08:51.849Z,52.97
2018-07-01T06:09:51.869Z,52.40
2018-07-01T06:10:51.861Z,53.84
2018-07-01T06:11:51.855Z,55.09
2018-07-01T06:12:51.857Z,53.36
2018-07-01T06:13:51.861Z,53.17
2018-07-01T06:14:51.866Z,54.42
2018-07-01T06:15:51.870Z,54.90
2018-07-01T06:16:51.984Z,54.42
2018-07-01T06:17:51.912Z,53.00
2018-07-01T06:18:51.902Z,53.09
2018-07-01T06:19:51.897Z,52.91
2018-07-01T06:20:51.906Z,52.33
2018-07-01T06:21:51.898Z,53.09
2018-07-01T06:22:51.901Z,53.00
2018-07-01T06:23:51.913Z,52.61
2018-07-01T06:24:51.910Z,52.81
2018-07-01T06:25:51.921Z,52.71
2018-07-01T06:26:51.921Z,51.17
2018-07-01T06:27:51.949Z,51.97
2018-07-01T06:28:51.926Z,52.04
2018-07-01T06:29:51.940Z,52.06
2018-07-01T06:30:51.956Z,51.77
2018-07-01T06:31:51.940Z,51.10
2018-07-01T06:32:51.963Z,51.58
2018-07-01T06:33:51.961Z,51.20
2018-07-01T06:34:51.970Z,51.10
2018-07-01T06:35:51.966Z,50.71
2018-07-01T06:36:51.960Z,49.55
2018-07-01T06:37:51.994Z,49.27
2018-07-01T06:38:51.971Z,49.82
2018-07-01T06:39:51.977Z,50.90
2018-07-01T06:40:51.993Z,50.13
2018-07-01T06:41:52.011Z,49.91
2018-07-01T06:42:51.989Z,49.43
2018-07-01T06:43:52.006Z,50.23
2018-07-01T06:44:51.997Z,50.52
2018-07-01T06:45:52.001Z,49.34
2018-07-01T06:46:52.007Z,49.94
2018-07-01T06:47:52.023Z,49.46
2018-07-01T06:48:52.023Z,48.97
2018-07-01T06:49:52.021Z,49.07
2018-07-01T06:50:52.050Z,50.52
2018-07-01T06:51:52.030Z,50.42
2018-07-01T06:52:52.042Z,49.37
2018-07-01T06:53:52.048Z,48.97
2018-07-01T06:54:52.042Z,48.59
2018-07-01T06:55:52.048Z,48.40
2018-07-01T06:56:52.064Z,48.23
2018-07-01T06:57:52.056Z,47.82
2018-07-01T06:58:52.075Z,48.33
2018-07-01T06:59:52.073Z,49.58
2018-07-01T07:00:52.068Z,49.58
2018-07-01T07:01:52.083Z,49.48
2018-07-01T07:02:52.089Z,48.03
2018-07-01T07:03:52.083Z,47.94
2018-07-01T07:04:52.089Z,48.52
2018-07-01T07:05:52.107Z,49.29
2018-07-01T07:06:52.129Z,50.84
2018-07-01T07:07:52.181Z,50.38
2018-07-01T07:08:52.104Z,49.12
2018-07-01T07:09:52.109Z,47.96
2018-07-01T07:10:52.146Z,47.87
2018-07-01T07:11:52.137Z,47.67
2018-07-01T07:12:52.162Z,48.16
2018-07-01T07:13:52.144Z,48.35
2018-07-01T07:14:52.152Z,47.19
2018-07-01T07:15:52.138Z,47.38
2018-07-01T07:16:52.145Z,47.29
2018-07-01T07:17:52.164Z,47.96
2018-07-01T07:18:52.166Z,47.29
2018-07-01T07:19:52.167Z,47.96
2018-07-01T07:20:52.173Z,48.35
2018-07-01T07:21:52.175Z,47.19
2018-07-01T07:22:52.184Z,47.22
2018-07-01T07:23:52.201Z,46.83
2018-07-01T07:24:52.205Z,47.80
2018-07-01T07:25:52.198Z,47.80
2018-07-01T07:26:52.200Z,48.28
2018-07-01T07:27:52.196Z,49.34
2018-07-01T07:28:52.213Z,48.57
2018-07-01T07:29:52.215Z,48.30
2018-07-01T07:30:52.216Z,47.81
2018-07-01T07:31:52.223Z,47.43
2018-07-01T07:32:52.215Z,46.66
2018-07-01T07:33:52.220Z,46.47
2018-07-01T07:34:52.240Z,46.56
2018-07-01T07:35:52.245Z,46.17
2018-07-01T07:36:52.235Z,45.40
2018-07-01T07:37:52.245Z,46.85
2018-07-01T07:38:52.248Z,46.66
2018-07-01T07:39:52.267Z,47.14
2018-07-01T07:40:52.255Z,47.05
2018-07-01T07:41:52.261Z,46.47
2018-07-01T07:42:52.275Z,45.89
2018-07-01T07:43:52.272Z,46.00
2018-07-01T07:44:52.291Z,44.92
2018-07-01T07:45:52.281Z,44.63
2018-07-01T07:46:52.295Z,46.56
2018-07-01T07:47:52.291Z,46.85
2018-07-01T07:48:52.295Z,45.11
2018-07-01T07:49:52.312Z,45.69
2018-07-01T07:50:52.321Z,45.31
2018-07-01T07:51:52.340Z,45.50
2018-07-01T07:52:52.322Z,45.98
2018-07-01T07:53:52.332Z,46.10
2018-07-01T07:54:52.325Z,43.98
2018-07-01T07:55:52.334Z,43.59
2018-07-01T07:56:52.349Z,44.75
2018-07-01T07:57:52.341Z,45.04
2018-07-01T07:58:52.361Z,44.84
2018-07-01T07:59:52.350Z,44.84
2018-07-01T08:00:52.368Z,44.65
2018-07-01T08:01:52.564Z,45.45
2018-07-01T08:02:52.367Z,44.87
2018-07-01T08:03:52.371Z,44.38
2018-07-01T08:04:52.391Z,44.57
2018-07-01T08:05:52.381Z,43.80
2018-07-01T08:06:52.389Z,43.61
2018-07-01T08:07:52.393Z,43.23
2018-07-01T08:08:52.401Z,43.99
2018-07-01T08:09:52.413Z,45.06
2018-07-01T08:10:52.411Z,45.47
2018-07-01T08:11:52.437Z,44.98
2018-07-01T08:12:52.488Z,44.70
2018-07-01T08:13:52.429Z,44.40
2018-07-01T08:14:52.444Z,42.97
2018-07-01T08:15:52.663Z,43.15
2018-07-01T08:16:52.660Z,43.92
2018-07-01T08:17:52.450Z,43.85
2018-07-01T08:18:52.466Z,44.33
2018-07-01T08:19:52.663Z,43.46
2018-07-01T08:20:52.669Z,42.61
2018-07-01T08:21:52.689Z,43.09
2018-07-01T08:22:52.488Z,41.35
2018-07-01T08:23:52.494Z,40.28
2018-07-01T08:24:52.704Z,41.14
2018-07-01T08:25:52.497Z,40.84
2018-07-01T08:26:52.518Z,40.46
2018-07-01T08:27:52.511Z,42.40
2018-07-01T08:28:52.731Z,41.33
2018-07-01T08:29:52.518Z,40.65
2018-07-01T08:30:52.540Z,41.33
2018-07-01T08:31:52.535Z,40.17
2018-07-01T08:32:52.543Z,40.48
2018-07-01T08:33:52.546Z,41.55
2018-07-01T08:34:52.763Z,41.27
2018-07-01T08:35:52.561Z,41.30
2018-07-01T08:36:52.575Z,40.33
2018-07-01T08:37:52.591Z,40.25
2018-07-01T08:38:52.589Z,40.56
2018-07-01T08:39:52.584Z,39.90
2018-07-01T08:40:52.611Z,38.95
2018-07-01T08:41:52.597Z,37.98
2018-07-01T08:42:52.600Z,38.85
2018-07-01T08:43:52.607Z,37.78
2018-07-01T08:44:52.616Z,38.06
2018-07-01T08:45:52.622Z,38.34
2018-07-01T08:46:52.627Z,39.49
2018-07-01T08:47:52.633Z,38.62
2018-07-01T08:48:52.639Z,38.91
2018-07-01T08:49:52.643Z,38.32
2018-07-01T08:50:52.650Z,38.21
2018-07-01T08:51:52.658Z,39.18
2018-07-01T08:52:52.726Z,38.02
2018-07-01T08:53:52.672Z,38.21
2018-07-01T08:54:52.672Z,38.00
2018-07-01T08:55:52.890Z,37.81
2018-07-01T08:56:52.726Z,38.56
2018-07-01T08:57:52.717Z,38.66
2018-07-01T08:58:52.696Z,39.24
2018-07-01T08:59:52.728Z,38.76
2018-07-01T09:00:52.713Z,39.43
2018-07-01T09:01:52.713Z,38.76
2018-07-01T09:02:52.721Z,40.01
2018-07-01T09:03:52.729Z,39.24
2018-07-01T09:04:52.742Z,39.34
2018-07-01T09:05:52.739Z,38.76
2018-07-01T09:06:52.745Z,39.92
2018-07-01T09:07:52.762Z,39.24
2018-07-01T09:08:52.863Z,40.01
2018-07-01T09:09:52.762Z,38.76
2018-07-01T09:10:52.768Z,38.56
2018-07-01T09:11:52.772Z,38.85
2018-07-01T09:12:52.786Z,39.80
2018-07-01T09:13:52.792Z,39.43
2018-07-01T09:14:52.817Z,38.83
2018-07-01T09:15:52.797Z,39.12
2018-07-01T09:16:52.807Z,40.69
2018-07-01T09:17:52.851Z,38.56
2018-07-01T09:18:52.815Z,38.95
2018-07-01T09:19:52.821Z,38.85
2018-07-01T09:20:53.051Z,38.95
2018-07-01T09:21:53.035Z,40.21
2018-07-01T09:22:52.869Z,39.24
2018-07-01T09:23:52.845Z,38.95
2018-07-01T09:24:52.855Z,37.79
2018-07-01T09:25:52.855Z,38.95
2018-07-01T09:26:52.865Z,37.79
2018-07-01T09:27:52.868Z,37.79
2018-07-01T09:28:52.919Z,36.80
2018-07-01T09:29:52.880Z,39.43
2018-07-01T09:30:52.901Z,41.47
2018-07-01T09:31:52.903Z,37.98
2018-07-01T09:32:52.898Z,37.88
2018-07-01T09:33:52.905Z,39.14
2018-07-01T09:34:52.913Z,37.41
2018-07-01T09:35:52.918Z,38.17
2018-07-01T09:36:52.926Z,38.37
2018-07-01T09:37:52.931Z,38.76
2018-07-01T09:38:52.947Z,38.66
2018-07-01T09:39:52.956Z,39.04
2018-07-01T09:40:52.950Z,37.69
2018-07-01T09:41:53.157Z,37.88
2018-07-01T09:42:52.960Z,37.48
2018-07-01T09:43:53.167Z,38.46
2018-07-01T09:44:52.982Z,38.66
2018-07-01T09:45:53.197Z,38.46
2018-07-01T09:46:53.191Z,38.54
2018-07-01T09:47:53.002Z,39.14
2018-07-01T09:48:53.007Z,38.64
2018-07-01T09:49:53.216Z,37.87
2018-07-01T09:50:53.006Z,38.56
2018-07-01T09:51:53.014Z,37.67
2018-07-01T09:52:53.021Z,38.56
2018-07-01T09:53:53.025Z,38.46
2018-07-01T09:54:53.032Z,38.66
2018-07-01T09:55:53.039Z,38.46
2018-07-01T09:56:53.042Z,38.56
2018-07-01T09:57:53.050Z,39.72
2018-07-01T09:58:53.069Z,38.27
2018-07-01T09:59:53.264Z,37.69
2018-07-01T10:00:53.073Z,36.52
2018-07-01T10:01:53.275Z,38.07
2018-07-01T10:02:53.082Z,38.85
2018-07-01T10:03:53.098Z,38.46
2018-07-01T10:04:53.094Z,37.81
2018-07-01T10:05:53.111Z,38.00
2018-07-01T10:06:53.108Z,38.09
2018-07-01T10:07:53.112Z,37.30
2018-07-01T10:08:53.119Z,37.03
2018-07-01T10:09:53.147Z,36.93
2018-07-01T10:10:53.331Z,37.23
2018-07-01T10:11:53.199Z,35.86
2018-07-01T10:12:53.345Z,35.48
2018-07-01T10:13:53.146Z,35.19
2018-07-01T10:14:53.158Z,35.94
2018-07-01T10:15:53.160Z,36.04
2018-07-01T10:16:53.163Z,35.94
2018-07-01T10:17:53.169Z,35.94
2018-07-01T10:18:53.208Z,36.04
2018-07-01T10:19:53.185Z,36.91
2018-07-01T10:20:53.210Z,37.40
2018-07-01T10:21:53.196Z,37.49
2018-07-01T10:22:53.214Z,37.11
2018-07-01T10:23:53.219Z,36.04
2018-07-01T10:24:53.211Z,35.85
2018-07-01T10:25:53.224Z,35.27
2018-07-01T10:26:53.428Z,36.04
2018-07-01T10:27:53.247Z,36.06
2018-07-01T10:28:53.241Z,35.86
2018-07-01T10:29:53.460Z,37.81
2018-07-01T10:30:53.250Z,35.77
2018-07-01T10:31:53.472Z,36.93
2018-07-01T10:32:53.265Z,36.16
2018-07-01T10:33:53.470Z,36.54
2018-07-01T10:34:53.298Z,38.29
2018-07-01T10:35:53.496Z,36.06
2018-07-01T10:36:53.286Z,38.00
2018-07-01T10:37:53.320Z,35.86
2018-07-01T10:38:53.309Z,35.67
2018-07-01T10:39:53.526Z,36.06
2018-07-01T10:40:53.514Z,36.16
2018-07-01T10:41:53.332Z,35.77
2018-07-01T10:42:53.344Z,36.25
2018-07-01T10:43:53.345Z,35.96
2018-07-01T10:44:53.346Z,36.95
2018-07-01T10:45:53.421Z,36.18
2018-07-01T10:46:53.349Z,35.40
2018-07-01T10:47:53.365Z,35.98
2018-07-01T10:48:53.359Z,35.98
2018-07-01T10:49:53.378Z,35.98
2018-07-01T10:50:53.370Z,35.49
2018-07-01T10:51:53.593Z,35.40
2018-07-01T10:52:53.385Z,35.21
2018-07-01T10:53:53.607Z,35.98
2018-07-01T10:54:53.411Z,35.49
2018-07-01T10:55:53.418Z,35.88
2018-07-01T10:56:53.409Z,34.91
2018-07-01T10:57:53.619Z,34.72
2018-07-01T10:58:53.433Z,35.77
2018-07-01T10:59:53.428Z,35.49
2018-07-01T11:00:53.432Z,36.16
2018-07-01T11:01:53.642Z,36.64
2018-07-01T11:02:53.457Z,36.18
2018-07-01T11:03:53.456Z,35.88
2018-07-01T11:04:53.460Z,37.05
2018-07-01T11:05:53.514Z,36.66
2018-07-01T11:06:53.480Z,36.18
2018-07-01T11:07:53.711Z,34.81
2018-07-01T11:08:53.503Z,33.84
2018-07-01T11:09:53.505Z,35.19
2018-07-01T11:10:53.705Z,36.25
2018-07-01T11:11:53.502Z,35.09
2018-07-01T11:12:53.720Z,34.51
2018-07-01T11:13:53.720Z,36.54
2018-07-01T11:14:53.520Z,37.23
2018-07-01T11:15:53.730Z,35.88
2018-07-01T11:16:53.543Z,34.62
2018-07-01T11:17:53.748Z,33.94
2018-07-01T11:18:53.759Z,35.30
2018-07-01T11:19:53.575Z,35.11
2018-07-01T11:20:53.557Z,35.01
2018-07-01T11:21:53.576Z,34.91
2018-07-01T11:22:53.583Z,34.33
2018-07-01T11:23:53.601Z,34.70
2018-07-01T11:24:53.793Z,33.92
2018-07-01T11:25:53.589Z,35.57
2018-07-01T11:26:53.687Z,34.99
2018-07-01T11:27:53.633Z,34.80
2018-07-01T11:28:53.821Z,34.12
2018-07-01T11:29:53.627Z,34.51
2018-07-01T11:30:53.634Z,35.67
2018-07-01T11:31:53.626Z,34.89
2018-07-01T11:32:53.666Z,35.19
2018-07-01T11:33:53.639Z,35.77
2018-07-01T11:34:53.646Z,35.19
2018-07-01T11:35:53.654Z,35.85
2018-07-01T11:36:53.669Z,35.27
2018-07-01T11:37:53.663Z,34.99
2018-07-01T11:38:53.669Z,33.73
2018-07-01T11:39:53.694Z,34.12
2018-07-01T11:40:53.885Z,33.54
2018-07-01T11:41:53.688Z,34.51
2018-07-01T11:42:53.706Z,33.54
2018-07-01T11:43:53.704Z,33.54
2018-07-01T11:44:53.714Z,32.76
2018-07-01T11:45:53.725Z,34.22
2018-07-01T11:46:53.734Z,33.07
2018-07-01T11:47:53.726Z,32.49
2018-07-01T11:48:53.934Z,32.39
2018-07-01T11:49:53.739Z,31.89
2018-07-01T11:50:53.947Z,31.60
2018-07-01T11:51:53.773Z,32.57
2018-07-01T11:52:53.961Z,31.50
2018-07-01T11:53:53.779Z,32.18
2018-07-01T11:54:53.786Z,32.84
2018-07-01T11:55:53.777Z,33.54
2018-07-01T11:56:53.782Z,33.64
2018-07-01T11:57:53.789Z,32.96
2018-07-01T11:58:53.799Z,32.47
2018-07-01T11:59:53.886Z,33.25
2018-07-01T12:00:53.810Z,33.83
2018-07-01T12:01:54.053Z,33.62
2018-07-01T12:02:53.822Z,35.36
2018-07-01T12:03:54.032Z,34.41
2018-07-01T12:05:16.203Z,35.57
2018-07-01T12:05:53.839Z,32.96
2018-07-01T12:06:53.858Z,33.14
2018-07-01T12:07:53.866Z,34.20
2018-07-01T12:08:53.871Z,33.83
2018-07-01T12:09:53.864Z,35.17
2018-07-01T12:10:53.884Z,34.59
2018-07-01T12:11:54.105Z,34.30
2018-07-01T12:12:53.899Z,33.91
2018-07-01T12:13:53.899Z,33.91
2018-07-01T12:14:53.905Z,32.65
2018-07-01T12:15:54.120Z,32.73
2018-07-01T12:16:53.914Z,33.62
2018-07-01T12:17:53.916Z,33.42
2018-07-01T12:18:54.135Z,33.91
2018-07-01T12:19:53.940Z,33.60
2018-07-01T12:20:54.138Z,33.81
2018-07-01T12:21:53.941Z,33.70
2018-07-01T12:22:53.948Z,35.25
2018-07-01T12:23:53.954Z,35.93
2018-07-01T12:24:53.977Z,35.25
2018-07-01T12:25:53.965Z,35.35
2018-07-01T12:26:53.974Z,36.51
2018-07-01T12:27:54.009Z,36.32
2018-07-01T12:28:54.226Z,36.80
2018-07-01T12:29:53.993Z,35.35
2018-07-01T12:30:53.995Z,36.68
2018-07-01T12:31:54.004Z,35.42
2018-07-01T12:32:54.227Z,35.23
2018-07-01T12:33:54.017Z,34.65
2018-07-01T12:34:54.141Z,36.20
2018-07-01T12:35:54.237Z,36.80
2018-07-01T12:36:54.250Z,36.90
2018-07-01T12:37:54.056Z,37.77
2018-07-01T12:38:54.049Z,37.28
2018-07-01T12:39:54.259Z,34.67
2018-07-01T12:40:54.070Z,33.62
2018-07-01T12:41:54.070Z,33.81
2018-07-01T12:42:54.075Z,34.30
2018-07-01T12:43:54.297Z,34.11
2018-07-01T12:44:54.092Z,34.59
2018-07-01T12:45:54.096Z,35.36
2018-07-01T12:46:54.113Z,35.46
2018-07-01T12:47:54.116Z,35.36
2018-07-01T12:48:54.111Z,34.97
2018-07-01T12:49:54.119Z,35.48
2018-07-01T12:50:54.156Z,33.91
2018-07-01T12:51:54.141Z,34.39
2018-07-01T12:52:54.366Z,35.27